createdAt,value
2018-11-04T00:00:36.469Z,924.22
2018-11-04T00:02:08.041Z,924.29
2018-11-04T00:03:39.738Z,924.38
2018-11-04T00:05:11.188Z,924.43
2018-11-04T00:06:42.757Z,924.45
2018-11-04T00:08:14.329Z,924.48
2018-11-04T00:11:17.472Z,924.51
2018-11-04T00:12:49.449Z,924.52
2018-11-04T00:14:20.616Z,924.47
2018-11-04T00:15:52.187Z,924.55
2018-11-04T00:17:23.760Z,924.54
2018-11-04T00:18:55.332Z,924.50
2018-11-04T00:20:26.903Z,924.55
2018-11-04T00:21:58.475Z,924.52
2018-11-04T00:23:30.047Z,924.57
2018-11-04T00:25:01.620Z,924.56
2018-11-04T00:26:33.191Z,924.60
2018-11-04T00:28:04.763Z,924.64
2018-11-04T00:29:36.389Z,924.70
2018-11-04T00:31:08.008Z,924.73
2018-11-04T00:32:39.480Z,924.65
2018-11-04T00:34:11.051Z,924.56
2018-11-04T00:35:42.623Z,924.47
2018-11-04T00:37:14.199Z,924.40
2018-11-04T00:38:45.768Z,924.38
2018-11-04T00:40:17.343Z,924.32
2018-11-04T00:41:48.911Z,924.29
2018-11-04T00:43:20.482Z,924.23
2018-11-04T00:44:52.055Z,924.21
2018-11-04T00:46:23.627Z,924.20
2018-11-04T00:47:55.199Z,924.17
2018-11-04T00:49:26.872Z,924.12
2018-11-04T00:50:58.344Z,924.09
2018-11-04T00:52:29.915Z,924.03
2018-11-04T00:54:01.487Z,924.02
2018-11-04T00:55:33.066Z,923.99
2018-11-04T00:57:04.632Z,923.97
2018-11-04T00:58:36.204Z,923.98
2018-11-04T01:00:07.775Z,924.02
2018-11-04T01:03:10.921Z,923.98
2018-11-04T01:04:42.493Z,924.05
2018-11-04T01:06:14.069Z,924.06
2018-11-04T01:07:45.645Z,924.03
2018-11-04T01:09:17.377Z,924.07
2018-11-04T01:10:48.781Z,924.01
2018-11-04T01:12:20.354Z,924.11
2018-11-04T01:13:51.925Z,924.19
2018-11-04T01:15:23.497Z,924.22
2018-11-04T01:18:26.642Z,924.26
2018-11-04T01:19:58.213Z,924.24
2018-11-04T01:21:29.787Z,924.24
2018-11-04T01:23:01.360Z,924.23
2018-11-04T01:31:26.563Z,924.40
2018-11-04T01:32:58.132Z,924.44
2018-11-04T01:34:29.714Z,924.45
2018-11-04T01:36:01.275Z,924.41
2018-11-04T01:37:32.846Z,924.37
2018-11-04T01:39:04.417Z,924.32
2018-11-04T01:40:35.988Z,924.29
2018-11-04T01:42:07.566Z,924.15
2018-11-04T01:43:39.135Z,924.06
2018-11-04T01:45:10.808Z,923.94
2018-11-04T01:46:42.277Z,923.94
2018-11-04T01:48:13.849Z,923.91
2018-11-04T01:49:45.581Z,923.92
2018-11-04T01:51:17.084Z,923.99
2018-11-04T01:52:48.694Z,923.99
2018-11-04T01:54:20.291Z,924.02
2018-11-04T01:55:51.736Z,923.97
2018-11-04T01:57:23.282Z,923.98
2018-11-04T02:00:26.429Z,923.85
2018-11-04T02:01:58.011Z,923.79
2018-11-04T02:03:29.672Z,923.74
2018-11-04T02:05:01.148Z,923.78
2018-11-04T02:06:32.726Z,923.84
2018-11-04T02:08:04.293Z,923.85
2018-11-04T02:09:35.859Z,923.85
2018-11-04T02:11:07.431Z,923.84
2018-11-04T02:12:39.005Z,923.77
2018-11-04T02:14:10.587Z,923.63
2018-11-04T02:17:13.719Z,923.58
2018-11-04T02:18:45.314Z,923.54
2018-11-04T02:20:16.878Z,923.50
2018-11-04T02:21:48.436Z,923.46
2018-11-04T02:23:20.108Z,923.50
2018-11-04T02:24:51.580Z,923.53
2018-11-04T02:26:23.149Z,923.55
2018-11-04T02:27:54.722Z,923.60
2018-11-04T02:29:26.293Z,923.59
2018-11-04T02:30:57.866Z,923.65
2018-11-04T02:32:29.438Z,923.66
2018-11-04T02:34:01.010Z,923.68
2018-11-04T02:35:32.581Z,923.68
2018-11-04T02:37:04.151Z,923.63
2018-11-04T02:38:35.724Z,923.66
2018-11-04T02:40:07.306Z,923.57
2018-11-04T02:41:38.983Z,923.53
2018-11-04T02:43:10.439Z,923.51
2018-11-04T02:44:42.011Z,923.46
2018-11-04T02:46:13.583Z,923.36
2018-11-04T02:47:45.156Z,923.31
2018-11-04T02:49:16.727Z,923.24
2018-11-04T02:50:48.301Z,923.25
2018-11-04T02:52:19.874Z,923.24
2018-11-04T02:53:51.442Z,923.15
2018-11-04T02:55:23.019Z,923.15
2018-11-04T02:56:54.585Z,923.13
2018-11-04T02:58:26.169Z,923.06
2018-11-04T02:59:57.838Z,923.04
2018-11-04T03:01:29.304Z,923.01
2018-11-04T03:03:00.875Z,922.98
2018-11-04T03:04:32.750Z,922.93
2018-11-04T03:06:04.019Z,922.92
2018-11-04T03:07:35.593Z,922.89
2018-11-04T03:09:07.160Z,922.87
2018-11-04T03:10:38.739Z,922.76
2018-11-04T03:12:10.303Z,922.69
2018-11-04T03:15:13.464Z,922.64
2018-11-04T03:16:45.027Z,922.65
2018-11-04T03:18:16.699Z,922.58
2018-11-04T03:19:48.170Z,922.59
2018-11-04T03:21:19.742Z,922.57
2018-11-04T03:22:51.618Z,922.53
2018-11-04T03:24:22.887Z,922.47
2018-11-04T03:25:54.457Z,922.48
2018-11-04T03:27:26.029Z,922.46
2018-11-04T03:28:57.602Z,922.40
2018-11-04T03:30:29.175Z,922.38
2018-11-04T03:32:00.745Z,922.34
2018-11-04T03:33:32.327Z,922.29
2018-11-04T03:35:03.889Z,922.22
2018-11-04T03:36:35.564Z,922.18
2018-11-04T03:38:07.034Z,922.09
2018-11-04T03:39:38.610Z,922.04
2018-11-04T03:41:10.179Z,921.99
2018-11-04T03:42:41.749Z,921.94
2018-11-04T03:44:13.321Z,921.96
2018-11-04T03:45:44.906Z,921.94
2018-11-04T03:47:16.454Z,921.95
2018-11-04T03:48:48.030Z,921.93
2018-11-04T03:50:19.672Z,921.86
2018-11-04T03:51:51.244Z,921.86
2018-11-04T03:53:22.815Z,921.82
2018-11-04T03:54:54.740Z,921.75
2018-11-04T03:56:25.962Z,921.73
2018-11-04T03:57:57.533Z,921.69
2018-11-04T03:59:29.105Z,921.68
2018-11-04T04:01:00.710Z,921.70
2018-11-04T04:02:32.250Z,921.68
2018-11-04T04:04:03.820Z,921.65
2018-11-04T04:05:35.458Z,921.63
2018-11-04T04:07:07.036Z,921.62
2018-11-04T04:08:38.684Z,921.57
2018-11-04T04:10:10.113Z,921.57
2018-11-04T04:11:41.879Z,921.61
2018-11-04T04:13:13.277Z,921.56
2018-11-04T04:14:44.749Z,921.49
2018-11-04T04:16:16.321Z,921.43
2018-11-04T04:17:47.893Z,921.36
2018-11-04T04:19:19.464Z,921.34
2018-11-04T04:20:51.036Z,921.24
2018-11-04T04:22:22.608Z,921.24
2018-11-04T04:23:54.180Z,921.14
2018-11-04T04:25:25.751Z,921.22
2018-11-04T04:26:57.854Z,921.26
2018-11-04T04:28:28.899Z,921.29
2018-11-04T04:30:00.466Z,921.27
2018-11-04T04:31:32.339Z,921.24
2018-11-04T04:33:03.610Z,921.12
2018-11-04T04:34:35.182Z,921.06
2018-11-04T04:36:06.755Z,921.04
2018-11-04T04:37:38.326Z,921.06
2018-11-04T04:39:09.897Z,921.09
2018-11-04T04:40:41.470Z,921.05
2018-11-04T04:42:13.043Z,920.99
2018-11-04T04:43:44.612Z,920.95
2018-11-04T04:45:16.185Z,920.96
2018-11-04T04:46:47.757Z,920.92
2018-11-04T04:48:19.329Z,920.96
2018-11-04T04:49:51.001Z,920.97
2018-11-04T04:51:22.473Z,920.97
2018-11-04T04:52:54.251Z,920.96
2018-11-04T04:54:25.616Z,920.95
2018-11-04T04:55:57.188Z,920.92
2018-11-04T04:57:28.761Z,920.95
2018-11-04T04:59:00.333Z,921.00
2018-11-04T05:00:31.906Z,920.99
2018-11-04T05:02:03.478Z,920.93
2018-11-04T05:03:35.052Z,920.92
2018-11-04T05:05:06.622Z,920.95
2018-11-04T05:06:38.195Z,920.90
2018-11-04T05:08:09.866Z,920.85
2018-11-04T05:09:41.338Z,920.83
2018-11-04T05:11:12.910Z,920.81
2018-11-04T05:12:44.483Z,920.73
2018-11-04T05:14:16.055Z,920.65
2018-11-04T05:15:47.626Z,920.68
2018-11-04T05:17:19.198Z,920.70
2018-11-04T05:18:50.770Z,920.66
2018-11-04T05:20:22.342Z,920.66
2018-11-04T05:21:53.913Z,920.69
2018-11-04T05:23:25.485Z,920.70
2018-11-04T05:24:57.058Z,920.64
2018-11-04T05:26:28.731Z,920.68
2018-11-04T05:28:00.201Z,920.68
2018-11-04T05:29:31.776Z,920.71
2018-11-04T05:31:03.345Z,920.68
2018-11-04T05:32:34.917Z,920.65
2018-11-04T05:34:06.488Z,920.64
2018-11-04T05:35:38.061Z,920.65
2018-11-04T05:37:09.632Z,920.61
2018-11-04T05:38:41.205Z,920.54
2018-11-04T05:40:12.774Z,920.52
2018-11-04T05:41:44.347Z,920.44
2018-11-04T05:43:15.918Z,920.47
2018-11-04T05:44:47.590Z,920.46
2018-11-04T05:46:19.062Z,920.50
2018-11-04T05:47:50.633Z,920.49
2018-11-04T05:49:22.204Z,920.46
2018-11-04T05:50:53.776Z,920.44
2018-11-04T05:52:25.348Z,920.40
2018-11-04T05:53:56.919Z,920.40
2018-11-04T05:55:28.492Z,920.38
2018-11-04T05:57:00.063Z,920.46
2018-11-04T05:58:31.634Z,920.42
2018-11-04T06:00:03.207Z,920.40
2018-11-04T06:01:34.777Z,920.36
2018-11-04T06:03:06.448Z,920.36
2018-11-04T06:04:37.919Z,920.37
2018-11-04T06:06:09.493Z,920.38
2018-11-04T06:07:41.068Z,920.41
2018-11-04T06:09:12.634Z,920.39
2018-11-04T06:10:44.206Z,920.38
2018-11-04T06:12:15.778Z,920.38
2018-11-04T06:13:47.350Z,920.35
2018-11-04T06:15:18.920Z,920.35
2018-11-04T06:16:50.494Z,920.37
2018-11-04T06:18:22.063Z,920.44
2018-11-04T06:19:53.635Z,920.50
2018-11-04T06:21:25.306Z,920.66
2018-11-04T06:22:56.784Z,920.77
2018-11-04T06:24:28.349Z,920.85
2018-11-04T06:25:59.924Z,920.88
2018-11-04T06:27:31.492Z,920.91
2018-11-04T06:29:03.064Z,920.90
2018-11-04T06:30:34.634Z,920.88
2018-11-04T06:32:06.206Z,920.89
2018-11-04T06:33:37.780Z,920.94
2018-11-04T06:35:09.348Z,920.99
2018-11-04T06:36:40.919Z,920.98
2018-11-04T06:38:12.491Z,921.03
2018-11-04T06:41:15.855Z,921.11
2018-11-04T06:42:47.214Z,921.22
2018-11-04T06:44:18.777Z,921.23
2018-11-04T06:45:50.352Z,921.21
2018-11-04T06:47:21.965Z,921.22
2018-11-04T06:48:53.492Z,921.30
2018-11-04T06:50:25.063Z,921.31
2018-11-04T06:51:56.635Z,921.35
2018-11-04T06:53:28.206Z,921.30
2018-11-04T06:54:59.777Z,921.40
2018-11-04T06:56:31.348Z,921.41
2018-11-04T06:58:02.921Z,921.45
2018-11-04T06:59:34.592Z,921.45
2018-11-04T07:01:06.064Z,921.43
2018-11-04T07:02:37.636Z,921.49
2018-11-04T07:04:09.207Z,921.51
2018-11-04T07:05:40.782Z,921.51
2018-11-04T07:07:12.349Z,921.49
2018-11-04T07:08:43.963Z,921.50
2018-11-04T07:10:15.496Z,921.50
2018-11-04T07:11:47.066Z,921.53
2018-11-04T07:13:18.636Z,921.59
2018-11-04T07:14:50.516Z,921.58
2018-11-04T07:16:21.780Z,921.61
2018-11-04T07:17:53.452Z,921.49
2018-11-04T07:19:24.923Z,921.48
2018-11-04T07:20:56.494Z,921.48
2018-11-04T07:22:28.069Z,921.46
2018-11-04T07:23:59.637Z,921.39
2018-11-04T07:25:31.228Z,921.42
2018-11-04T07:27:02.781Z,921.35
2018-11-04T07:28:34.353Z,921.35
2018-11-04T07:30:05.928Z,921.33
2018-11-04T07:31:37.500Z,921.35
2018-11-04T07:33:09.069Z,921.35
2018-11-04T07:34:40.640Z,921.40
2018-11-04T07:36:12.312Z,921.35
2018-11-04T07:37:43.784Z,921.35
2018-11-04T07:39:15.356Z,921.35
2018-11-04T07:40:46.928Z,921.45
2018-11-04T07:42:18.500Z,921.46
2018-11-04T07:43:50.074Z,921.49
2018-11-04T07:45:21.643Z,921.57
2018-11-04T07:46:53.215Z,921.54
2018-11-04T07:48:24.787Z,921.54
2018-11-04T07:49:56.359Z,921.54
2018-11-04T07:51:27.963Z,921.57
2018-11-04T07:52:59.503Z,921.63
2018-11-04T07:54:31.175Z,921.69
2018-11-04T07:56:02.647Z,921.76
2018-11-04T07:57:34.219Z,921.75
2018-11-04T07:59:05.791Z,921.80
2018-11-04T08:00:37.363Z,921.75
2018-11-04T08:02:08.935Z,921.76
2018-11-04T08:03:40.812Z,921.73
2018-11-04T08:05:12.081Z,921.72
2018-11-04T08:06:43.651Z,921.70
2018-11-04T08:08:15.227Z,921.75
2018-11-04T08:09:46.796Z,921.83
2018-11-04T08:11:18.367Z,921.78
2018-11-04T08:14:21.611Z,921.83
2018-11-04T08:15:53.084Z,921.96
2018-11-04T08:17:24.655Z,922.08
2018-11-04T08:18:56.227Z,922.16
2018-11-04T08:20:27.803Z,922.29
2018-11-04T08:21:59.370Z,922.33
2018-11-04T08:23:30.942Z,922.45
2018-11-04T08:25:02.717Z,922.46
2018-11-04T08:28:05.658Z,922.58
2018-11-04T08:29:37.230Z,922.70
2018-11-04T08:32:40.576Z,922.82
2018-11-04T08:34:12.246Z,922.82
2018-11-04T08:35:44.046Z,922.80
2018-11-04T08:37:15.090Z,922.76
2018-11-04T08:38:46.660Z,922.68
2018-11-04T08:40:18.361Z,922.69
2018-11-04T08:43:21.375Z,922.71
2018-11-04T08:44:52.947Z,922.79
2018-11-04T08:47:56.294Z,922.94
2018-11-04T08:49:27.663Z,922.96
2018-11-04T08:50:59.438Z,922.97
2018-11-04T08:52:30.830Z,922.99
2018-11-04T08:55:34.253Z,922.95
2018-11-04T08:58:37.096Z,923.06
2018-11-04T09:00:08.931Z,923.19
2018-11-04T09:01:40.444Z,923.32
2018-11-04T09:03:12.120Z,923.39
2018-11-04T09:04:43.387Z,923.47
2018-11-04T09:06:14.963Z,923.48
2018-11-04T09:09:18.310Z,923.67
2018-11-04T09:10:49.680Z,923.71
2018-11-04T09:12:21.254Z,923.73
2018-11-04T09:13:53.336Z,923.59
2018-11-04T09:18:28.182Z,923.52
2018-11-04T09:21:30.759Z,923.59
2018-11-04T09:23:02.483Z,923.69
2018-11-04T09:24:33.847Z,923.78
2018-11-04T09:26:05.422Z,923.86
2018-11-04T09:29:08.817Z,923.88
2018-11-04T09:32:12.022Z,923.83
2018-11-04T09:33:43.297Z,923.82
2018-11-04T09:35:14.981Z,923.78
2018-11-04T09:39:49.687Z,923.74
2018-11-04T09:41:21.164Z,923.74
2018-11-04T09:42:52.936Z,923.73
2018-11-04T09:44:24.308Z,923.74
2018-11-04T09:45:56.084Z,923.78
2018-11-04T09:47:27.454Z,923.85
2018-11-04T09:48:59.534Z,923.86
2018-11-04T09:55:05.423Z,923.87
2018-11-04T09:58:08.673Z,924.01
2018-11-04T09:59:40.050Z,924.06
2018-11-04T10:02:43.197Z,924.16
2018-11-04T10:04:14.772Z,924.20
2018-11-04T10:05:46.595Z,924.19
2018-11-04T10:08:49.495Z,924.19
2018-11-04T10:10:21.070Z,924.12
2018-11-04T10:11:52.848Z,924.01
2018-11-04T10:14:56.101Z,924.10
2018-11-04T10:17:58.951Z,924.12
2018-11-04T10:21:03.015Z,924.16
2018-11-04T10:22:33.681Z,924.14
2018-11-04T10:24:05.258Z,924.07
2018-11-04T10:25:36.837Z,924.08
2018-11-04T10:27:08.414Z,924.09
2018-11-04T10:28:41.404Z,924.12
2018-11-04T10:33:15.273Z,924.27
2018-11-04T10:36:18.191Z,924.43
2018-11-04T10:37:49.456Z,924.56
2018-11-04T10:39:21.034Z,924.73
2018-11-04T10:40:52.615Z,924.68
2018-11-04T10:42:24.473Z,924.79
2018-11-04T10:43:55.768Z,924.74
2018-11-04T10:45:27.347Z,924.69
2018-11-04T10:46:58.924Z,924.72
2018-11-04T10:48:30.721Z,924.88
2018-11-04T10:50:02.203Z,924.96
2018-11-04T10:51:33.756Z,924.97
2018-11-04T10:54:37.016Z,925.15
2018-11-04T10:56:08.388Z,925.05
2018-11-04T10:57:39.964Z,925.01
2018-11-04T10:59:11.542Z,924.99
2018-11-04T11:00:43.118Z,924.90
2018-11-04T11:02:14.695Z,924.87
2018-11-04T11:03:46.802Z,924.81
2018-11-04T11:05:17.853Z,924.90
2018-11-04T11:06:49.629Z,925.04
2018-11-04T11:08:21.005Z,925.12
2018-11-04T11:09:52.885Z,925.13
2018-11-04T11:11:24.360Z,925.30
2018-11-04T11:12:55.735Z,925.29
2018-11-04T11:14:27.312Z,925.34
2018-11-04T11:17:30.676Z,925.58
2018-11-04T11:19:02.577Z,925.42
2018-11-04T11:20:33.625Z,925.35
2018-11-04T11:22:05.734Z,925.39
2018-11-04T11:23:37.312Z,925.46
2018-11-04T11:25:08.564Z,925.42
2018-11-04T11:26:40.471Z,925.46
2018-11-04T11:28:11.521Z,925.49
2018-11-04T11:31:14.779Z,925.36
2018-11-04T11:34:17.837Z,925.67
2018-11-04T11:35:49.617Z,925.58
2018-11-04T11:37:21.077Z,925.52
2018-11-04T11:38:52.774Z,925.49
2018-11-04T11:41:55.729Z,925.73
2018-11-04T11:43:27.309Z,925.70
2018-11-04T11:48:02.041Z,925.58
2018-11-04T11:49:33.720Z,925.67
2018-11-04T11:51:05.197Z,925.59
2018-11-04T11:52:37.020Z,925.56
2018-11-04T11:54:08.358Z,925.58
2018-11-04T11:55:40.461Z,925.55
2018-11-04T11:57:11.509Z,925.61
2018-11-04T11:58:43.087Z,925.68
2018-11-04T12:00:14.968Z,925.77
2018-11-04T12:03:17.819Z,925.71
2018-11-04T12:04:49.397Z,925.61
2018-11-04T12:06:20.973Z,925.70
2018-11-04T12:07:52.552Z,925.74
2018-11-04T12:09:24.229Z,925.74
2018-11-04T12:10:55.706Z,925.70
2018-11-04T12:12:27.486Z,925.69
2018-11-04T12:13:58.859Z,925.70
2018-11-04T12:17:02.215Z,925.82
2018-11-04T12:18:33.590Z,925.83
2018-11-04T12:20:05.169Z,925.89
2018-11-04T12:21:36.744Z,925.76
2018-11-04T12:23:08.326Z,925.70
2018-11-04T12:24:39.894Z,925.71
2018-11-04T12:26:11.470Z,925.67
2018-11-04T12:29:15.253Z,925.76
2018-11-04T12:30:46.734Z,925.75
2018-11-04T12:32:17.774Z,925.80
2018-11-04T12:33:49.350Z,925.89
2018-11-04T12:35:21.074Z,926.03
2018-11-04T12:36:52.703Z,926.11
2018-11-04T12:38:24.684Z,926.34
2018-11-04T12:39:55.957Z,926.35
2018-11-04T12:41:27.230Z,926.34
2018-11-04T12:42:59.015Z,926.38
2018-11-04T12:44:30.916Z,926.28
2018-11-04T12:46:01.967Z,926.19
2018-11-04T12:47:33.643Z,926.07
2018-11-04T12:49:06.663Z,925.62
2018-11-04T12:50:36.701Z,925.60
2018-11-04T12:56:43.220Z,925.53
2018-11-04T12:58:15.109Z,925.56
2018-11-04T12:59:46.175Z,925.62
2018-11-04T13:02:49.433Z,925.80
2018-11-04T13:07:24.068Z,926.17
2018-11-04T13:08:56.177Z,926.18
2018-11-04T13:10:27.226Z,926.21
2018-11-04T13:11:59.008Z,926.29
2018-11-04T13:13:30.391Z,926.09
2018-11-04T13:15:02.276Z,926.05
2018-11-04T13:16:33.544Z,925.93
2018-11-04T13:19:37.843Z,925.91
2018-11-04T13:24:12.072Z,925.82
2018-11-04T13:25:43.022Z,925.86
2018-11-04T13:28:46.383Z,925.88
2018-11-04T13:30:18.294Z,926.05
2018-11-04T13:31:49.540Z,926.16
2018-11-04T13:34:52.699Z,925.97
2018-11-04T13:36:24.078Z,926.06
2018-11-04T13:39:27.234Z,926.19
2018-11-04T13:44:02.075Z,926.32
2018-11-04T13:45:33.556Z,925.96
2018-11-04T13:47:05.664Z,925.75
2018-11-04T13:48:36.918Z,925.84
2018-11-04T13:50:08.298Z,925.64
2018-11-04T13:51:40.085Z,925.93
2018-11-04T13:53:11.460Z,926.32
2018-11-04T13:54:43.040Z,926.51
2018-11-04T13:56:14.822Z,926.34
2018-11-04T13:57:46.202Z,925.81
2018-11-04T13:59:17.780Z,926.14
2018-11-04T14:00:49.366Z,926.31
2018-11-04T14:02:21.043Z,926.11
2018-11-04T14:03:52.723Z,926.06
2018-11-04T14:05:24.101Z,926.12
2018-11-04T14:06:55.679Z,926.19
2018-11-04T14:08:27.259Z,926.16
2018-11-04T14:09:58.838Z,926.35
2018-11-04T14:11:30.418Z,926.32
2018-11-04T14:14:33.579Z,926.21
2018-11-04T14:16:05.470Z,926.15
2018-11-04T14:17:36.763Z,926.05
2018-11-04T14:19:08.319Z,926.02
2018-11-04T14:20:40.305Z,926.20
2018-11-04T14:23:43.129Z,926.23
2018-11-04T14:25:14.652Z,926.46
2018-11-04T14:26:46.237Z,926.40
2018-11-04T14:28:17.806Z,926.53
2018-11-04T14:31:20.969Z,926.15
2018-11-04T14:34:24.133Z,925.40
2018-11-04T14:35:55.918Z,925.74
2018-11-04T14:37:27.297Z,926.02
2018-11-04T14:38:59.940Z,925.88
2018-11-04T14:40:30.864Z,925.66
2018-11-04T14:42:02.246Z,925.82
2018-11-04T14:43:33.825Z,925.78
2018-11-04T14:45:05.221Z,925.63
2018-11-04T14:46:36.786Z,925.53
2018-11-04T14:48:08.572Z,925.74
2018-11-04T14:49:40.152Z,925.64
2018-11-04T14:52:43.121Z,925.69
2018-11-04T14:55:46.807Z,925.63
2018-11-04T14:57:17.859Z,925.88
2018-11-04T14:58:49.542Z,925.86
2018-11-04T15:00:21.021Z,925.82
2018-11-04T15:06:27.349Z,925.24
2018-11-04T15:07:59.435Z,925.05
2018-11-04T15:09:30.507Z,925.27
2018-11-04T15:11:02.330Z,925.26
2018-11-04T15:12:33.670Z,925.14
2018-11-04T15:14:05.250Z,925.07
2018-11-04T15:15:36.833Z,925.07
2018-11-04T15:18:40.353Z,925.28
2018-11-04T15:20:11.572Z,925.39
2018-11-04T15:23:15.262Z,925.53
2018-11-04T15:24:46.861Z,925.32
2018-11-04T15:27:49.475Z,925.51
2018-11-04T15:29:21.059Z,925.12
2018-11-04T15:30:53.169Z,925.26
2018-11-04T15:33:55.843Z,924.97
2018-11-04T15:35:27.383Z,925.19
2018-11-04T15:36:59.596Z,925.04
2018-11-04T15:38:30.562Z,924.81
2018-11-04T15:40:02.135Z,924.71
2018-11-04T15:41:34.224Z,924.69
2018-11-04T15:43:05.604Z,924.40
2018-11-04T15:46:08.468Z,924.30
2018-11-04T15:49:11.749Z,924.30
2018-11-04T15:50:43.217Z,924.25
2018-11-04T15:52:14.795Z,924.41
2018-11-04T15:55:18.591Z,924.49
2018-11-04T15:56:49.539Z,924.48
2018-11-04T15:58:21.119Z,924.45
2018-11-04T16:01:24.481Z,924.60
2018-11-04T16:02:55.859Z,924.41
2018-11-04T16:04:27.439Z,924.40
2018-11-04T16:05:59.119Z,924.38
2018-11-04T16:07:30.800Z,924.61
2018-11-04T16:09:02.183Z,924.43
2018-11-04T16:10:33.757Z,924.45
2018-11-04T16:12:05.337Z,924.44
2018-11-04T16:15:08.635Z,924.32
2018-11-04T16:18:11.932Z,924.24
2018-11-04T16:19:43.234Z,924.15
2018-11-04T16:21:15.950Z,924.22
2018-11-04T16:22:46.953Z,924.27
2018-11-04T16:24:17.969Z,924.24
2018-11-04T16:25:50.077Z,924.31
2018-11-04T16:31:57.429Z,924.35
2018-11-04T16:33:27.499Z,924.33
2018-11-04T16:34:59.016Z,924.13
2018-11-04T16:36:30.594Z,924.05
2018-11-04T16:38:02.237Z,924.12
2018-11-04T16:39:33.750Z,924.11
2018-11-04T16:42:37.108Z,923.98
2018-11-04T16:44:08.585Z,923.95
2018-11-04T16:45:40.060Z,924.00
2018-11-04T16:47:11.637Z,924.02
2018-11-04T16:50:15.593Z,924.12
2018-11-04T16:51:46.367Z,924.12
2018-11-04T16:53:17.943Z,924.29
2018-11-04T16:56:21.300Z,924.44
2018-11-04T16:57:52.977Z,924.44
2018-11-04T16:59:24.451Z,924.51
2018-11-04T17:00:56.130Z,924.60
2018-11-04T17:02:27.402Z,924.59
2018-11-04T17:07:02.134Z,924.53
2018-11-04T17:08:33.809Z,924.60
2018-11-04T17:10:05.489Z,924.70
2018-11-04T17:11:36.958Z,924.84
2018-11-04T17:14:40.019Z,924.21
2018-11-04T17:16:11.615Z,924.01
2018-11-04T17:17:44.313Z,924.04
2018-11-04T17:19:14.955Z,923.91
2018-11-04T17:22:17.910Z,924.22
2018-11-04T17:25:21.064Z,924.30
2018-11-04T17:28:24.624Z,923.96
2018-11-04T17:29:55.799Z,923.98
2018-11-04T17:31:27.376Z,924.04
2018-11-04T17:32:58.953Z,924.11
2018-11-04T17:34:30.532Z,924.03
2018-11-04T17:36:02.228Z,923.99
2018-11-04T17:39:05.265Z,923.93
2018-11-04T17:42:08.417Z,923.93
2018-11-04T17:43:40.194Z,923.93
2018-11-04T17:45:11.569Z,923.95
2018-11-04T17:46:43.146Z,923.99
2018-11-04T17:48:14.821Z,924.05
2018-11-04T17:49:46.298Z,924.22
2018-11-04T17:51:17.874Z,924.21
2018-11-04T17:54:21.026Z,924.01
2018-11-04T17:55:52.805Z,924.08
2018-11-04T17:57:24.178Z,924.03
2018-11-04T17:58:55.754Z,923.96
2018-11-04T18:00:27.331Z,924.08
2018-11-04T18:01:58.907Z,924.20
2018-11-04T18:03:30.792Z,924.26
2018-11-04T18:05:02.325Z,924.13
2018-11-04T18:06:34.304Z,924.22
2018-11-04T18:08:05.215Z,923.97
2018-11-04T18:09:38.334Z,924.20
2018-11-04T18:11:08.373Z,924.00
2018-11-04T18:12:40.147Z,923.93
2018-11-04T18:14:11.523Z,924.12
2018-11-04T18:15:43.101Z,924.11
2018-11-04T18:18:46.459Z,923.89
2018-11-04T18:20:18.361Z,923.87
2018-11-04T18:23:20.986Z,923.87
2018-11-04T18:24:53.193Z,923.71
2018-11-04T18:26:24.205Z,923.76
2018-11-04T18:27:56.020Z,923.79
2018-11-04T18:29:27.293Z,923.71
2018-11-04T18:30:58.870Z,923.69
2018-11-04T18:32:30.447Z,923.80
2018-11-04T18:35:33.806Z,924.07
2018-11-04T18:37:05.186Z,924.15
2018-11-04T18:38:36.962Z,923.99
2018-11-04T18:40:08.636Z,923.96
2018-11-04T18:43:11.783Z,924.05
2018-11-04T18:46:14.633Z,924.12
2018-11-04T18:47:46.217Z,923.78
2018-11-04T18:49:17.792Z,923.71
2018-11-04T18:50:49.893Z,923.67
2018-11-04T18:52:21.024Z,923.63
2018-11-04T18:59:59.451Z,923.61
2018-11-04T19:01:30.600Z,923.72
2018-11-04T19:03:02.175Z,923.69
2018-11-04T19:04:33.549Z,923.71
2018-11-04T19:06:05.125Z,923.73
2018-11-04T19:07:37.232Z,923.74
2018-11-04T19:09:08.479Z,923.80
2018-11-04T19:12:11.427Z,923.95
2018-11-04T19:13:43.002Z,924.06
2018-11-04T19:15:14.585Z,923.87
2018-11-04T19:16:46.275Z,923.87
2018-11-04T19:19:49.401Z,923.93
2018-11-04T19:21:21.080Z,924.05
2018-11-04T19:24:24.024Z,923.99
2018-11-04T19:27:27.173Z,923.99
2018-11-04T19:28:58.747Z,924.03
2018-11-04T19:30:30.322Z,923.99
2018-11-04T19:32:02.100Z,924.04
2018-11-04T19:33:33.471Z,924.02
2018-11-04T19:35:05.045Z,923.94
2018-11-04T19:36:36.620Z,923.96
2018-11-04T19:38:08.509Z,923.88
2018-11-04T19:39:39.868Z,923.99
2018-11-04T19:41:11.341Z,923.88
2018-11-04T19:42:43.643Z,923.92
2018-11-04T19:44:14.491Z,923.93
2018-11-04T19:47:17.637Z,923.94
2018-11-04T19:50:20.986Z,924.05
2018-11-04T19:53:24.149Z,924.07
2018-11-04T19:56:27.104Z,924.10
2018-11-04T20:01:03.825Z,924.01
2018-11-04T20:02:33.368Z,924.01
2018-11-04T20:05:36.511Z,923.92
2018-11-04T20:07:08.083Z,923.96
2018-11-04T20:08:39.655Z,923.98
2018-11-04T20:10:11.227Z,924.01
2018-11-04T20:13:14.506Z,923.91
2018-11-04T20:14:48.150Z,923.94
2018-11-04T20:16:17.547Z,923.99
2018-11-04T20:17:49.089Z,924.00
2018-11-04T20:19:20.900Z,924.03
2018-11-04T20:22:23.808Z,924.00
2018-11-04T20:23:55.906Z,924.01
2018-11-04T20:25:27.000Z,924.01
2018-11-04T20:26:58.519Z,923.98
2018-11-04T20:28:30.093Z,924.00
2018-11-04T20:30:01.966Z,924.01
2018-11-04T20:31:33.435Z,924.04
2018-11-04T20:34:36.381Z,924.00
2018-11-04T20:36:07.948Z,924.02
2018-11-04T20:37:39.623Z,924.05
2018-11-04T20:39:11.090Z,924.04
2018-11-04T20:40:42.662Z,924.11
2018-11-04T20:42:14.242Z,924.20
2018-11-04T20:43:45.804Z,924.17
2018-11-04T20:45:17.433Z,924.23
2018-11-04T20:46:48.952Z,924.22
2018-11-04T20:48:20.518Z,924.32
2018-11-04T20:51:23.697Z,924.28
2018-11-04T20:54:26.803Z,924.40
2018-11-04T20:55:58.374Z,924.47
2018-11-04T20:57:30.168Z,924.43
2018-11-04T20:59:01.517Z,924.41
2018-11-04T21:00:33.089Z,924.47
2018-11-04T21:02:04.738Z,924.53
2018-11-04T21:03:36.309Z,924.46
2018-11-04T21:05:08.104Z,924.53
2018-11-04T21:06:39.574Z,924.55
2018-11-04T21:08:10.943Z,924.56
2018-11-04T21:09:42.728Z,924.59
2018-11-04T21:11:14.084Z,924.56
2018-11-04T21:12:45.654Z,924.63
2018-11-04T21:14:17.440Z,924.67
2018-11-04T21:17:20.469Z,924.67
2018-11-04T21:18:51.938Z,924.68
2018-11-04T21:20:23.509Z,924.69
2018-11-04T21:21:55.080Z,924.63
2018-11-04T21:23:26.652Z,924.69
2018-11-04T21:24:58.525Z,924.72
2018-11-04T21:28:01.453Z,924.74
2018-11-04T21:29:33.271Z,924.72
2018-11-04T21:31:04.566Z,924.75
2018-11-04T21:32:36.194Z,924.79
2018-11-04T21:34:07.647Z,924.84
2018-11-04T21:35:39.851Z,924.80
2018-11-04T21:37:10.789Z,924.95
2018-11-04T21:38:42.378Z,924.94
2018-11-04T21:40:13.930Z,924.95
2018-11-04T21:43:17.333Z,924.99
2018-11-04T21:44:48.736Z,924.95
2018-11-04T21:46:20.213Z,924.96
2018-11-04T21:47:51.786Z,924.92
2018-11-04T21:49:23.371Z,924.89
2018-11-04T21:50:54.966Z,924.92
2018-11-04T21:52:26.501Z,924.94
2018-11-04T21:53:58.067Z,925.02
2018-11-04T21:55:29.955Z,925.00
2018-11-04T21:58:32.780Z,924.98
2018-11-04T22:00:04.351Z,925.07
2018-11-04T22:01:35.922Z,925.03
2018-11-04T22:03:07.588Z,925.13
2018-11-04T22:04:39.130Z,925.11
2018-11-04T22:06:11.164Z,925.16
2018-11-04T22:07:42.205Z,925.16
2018-11-04T22:09:13.778Z,925.18
2018-11-04T22:10:45.569Z,925.17
2018-11-04T22:12:16.918Z,925.13
2018-11-04T22:13:48.613Z,925.20